Time;durP1;ratioP1;P1;durP2;ratioP2;P2;SDS_P1;SDS_P2;PMS_P1;PMS_P2;Temp;Humidity;BMP_temperature;BMP_pressure;BME280_temperature;BME280_humidity;BME280_pressure;Samples;Min_cycle;Max_cycle;Signal;HPM_P1;HPM_P2
2022/07/31 00:01:46;;;;;;;12.43;7.47;;;;;;;;;;6257353;28;20094;-59
2022/07/31 00:04:47;;;;;;;12.10;7.45;;;;;;;;;;6252595;28;20044;-59
2022/07/31 00:07:48;;;;;;;12.48;6.97;;;;;;;;;;6253363;28;20380;-59
2022/07/31 00:10:48;;;;;;;11.48;7.13;;;;;;;;;;6253440;28;20046;-59
2022/07/31 00:13:49;;;;;;;9.25;6.60;;;;;;;;;;6251098;28;20045;-59
2022/07/31 00:16:49;;;;;;;10.80;7.37;;;;;;;;;;6253533;28;20443;-58
2022/07/31 00:19:50;;;;;;;9.27;6.50;;;;;;;;;;6259219;28;20127;-59
2022/07/31 00:22:50;;;;;;;12.88;6.97;;;;;;;;;;6260835;28;20038;-59
2022/07/31 00:25:51;;;;;;;10.95;6.93;;;;;;;;;;6262102;28;20053;-59
2022/07/31 00:28:52;;;;;;;12.73;7.28;;;;;;;;;;6258438;28;20784;-59
2022/07/31 00:31:52;;;;;;;10.30;6.68;;;;;;;;;;6262558;28;20075;-59
2022/07/31 00:34:53;;;;;;;13.10;6.77;;;;;;;;;;6258192;28;20407;-59
2022/07/31 00:37:53;;;;;;;10.38;6.07;;;;;;;;;;6256840;28;20055;-59
2022/07/31 00:40:54;;;;;;;10.63;6.28;;;;;;;;;;6253447;28;20052;-59
2022/07/31 00:43:55;;;;;;;14.20;6.37;;;;;;;;;;6253173;28;20060;-59
2022/07/31 00:46:55;;;;;;;13.33;7.17;;;;;;;;;;6255183;28;20060;-59
2022/07/31 00:49:56;;;;;;;10.90;6.37;;;;;;;;;;6255612;28;20051;-59
2022/07/31 00:52:57;;;;;;;12.10;7.03;;;;;;;;;;6260581;28;20053;-58
2022/07/31 00:55:57;;;;;;;12.02;6.30;;;;;;;;;;6256358;28;20087;-59
2022/07/31 00:58:58;;;;;;;12.40;6.60;;;;;;;;;;6252059;28;20099;-58
2022/07/31 01:01:59;;;;;;;11.65;6.85;;;;;;;;;;6267379;28;20128;-58
2022/07/31 01:05:00;;;;;;;11.68;6.95;;;;;;;;;;6282969;28;20428;-58
2022/07/31 01:08:00;;;;;;;11.60;6.23;;;;;;;;;;6286113;28;20040;-59
2022/07/31 01:11:09;;;;;;;12.10;6.75;;;;;;;;;;6284859;28;20076;-59
2022/07/31 01:14:11;;;;;;;10.57;6.10;;;;;;;;;;6282484;28;20140;-59
2022/07/31 01:17:12;;;;;;;10.57;6.93;;;;;;;;;;6286897;28;20625;-59
2022/07/31 01:20:13;;;;;;;9.35;5.35;;;;;;;;;;6287951;28;20081;-58
2022/07/31 01:23:29;;;;;;;10.60;5.65;;;;;;;;;;6281905;28;20057;-59
2022/07/31 01:26:42;;;;;;;11.30;6.47;;;;;;;;;;6290011;28;20697;-59
2022/07/31 01:29:52;;;;;;;10.55;6.00;;;;;;;;;;6286334;28;20045;-59
2022/07/31 01:32:56;;;;;;;9.10;5.30;;;;;;;;;;6287780;28;20049;-59
2022/07/31 01:36:06;;;;;;;9.98;6.13;;;;;;;;;;6288865;28;20102;-59
2022/07/31 01:39:07;;;;;;;8.25;5.40;;;;;;;;;;6280884;28;20458;-59
2022/07/31 01:42:09;;;;;;;9.52;5.72;;;;;;;;;;6293148;28;20040;-59
2022/07/31 01:45:13;;;;;;;8.90;5.80;;;;;;;;;;6289067;28;20144;-59
2022/07/31 01:48:16;;;;;;;8.48;4.93;;;;;;;;;;6287185;28;20148;-58
2022/07/31 01:51:20;;;;;;;7.82;4.95;;;;;;;;;;6285658;28;20128;-58
2022/07/31 01:54:21;;;;;;;9.60;5.65;;;;;;;;;;6279916;28;20518;-58
2022/07/31 01:57:24;;;;;;;10.25;5.90;;;;;;;;;;6284214;28;20151;-59
2022/07/31 02:00:25;;;;;;;8.52;5.32;;;;;;;;;;6285856;28;20143;-58
2022/07/31 02:03:27;;;;;;;6.82;5.10;;;;;;;;;;6286863;28;20044;-59
2022/07/31 02:06:29;;;;;;;5.30;3.50;;;;;;;;;;6285309;28;20825;-58
2022/07/31 02:09:32;;;;;;;5.07;2.75;;;;;;;;;;6279502;28;20139;-58
2022/07/31 02:12:33;;;;;;;3.75;1.90;;;;;;;;;;6286096;28;20143;-58
2022/07/31 02:15:35;;;;;;;3.20;1.60;;;;;;;;;;6282481;28;20044;-59
2022/07/31 02:18:36;;;;;;;2.83;1.58;;;;;;;;;;6281280;28;20064;-59
2022/07/31 02:21:36;;;;;;;3.20;1.50;;;;;;;;;;6288005;28;20388;-58
2022/07/31 02:24:37;;;;;;;3.17;1.50;;;;;;;;;;6282589;28;20044;-58
2022/07/31 02:27:38;;;;;;;3.33;1.40;;;;;;;;;;6282009;28;20635;-59
2022/07/31 02:30:42;;;;;;;2.40;1.35;;;;;;;;;;6276697;28;20045;-59
2022/07/31 02:33:45;;;;;;;3.03;1.20;;;;;;;;;;6289441;28;20555;-59
2022/07/31 02:36:46;;;;;;;2.17;1.25;;;;;;;;;;6289690;28;20101;-59
2022/07/31 02:39:53;;;;;;;6.03;1.60;;;;;;;;;;6281525;28;20147;-59
2022/07/31 02:42:54;;;;;;;2.15;1.10;;;;;;;;;;6286847;28;20060;-59
2022/07/31 02:45:56;;;;;;;2.20;1.13;;;;;;;;;;6284303;28;20506;-59
2022/07/31 02:48:57;;;;;;;2.10;1.20;;;;;;;;;;6285844;28;21362;-59
2022/07/31 02:51:58;;;;;;;3.15;1.15;;;;;;;;;;6286597;28;20044;-59
2022/07/31 02:55:00;;;;;;;2.03;1.20;;;;;;;;;;6288139;28;20396;-59
2022/07/31 02:58:02;;;;;;;1.63;1.10;;;;;;;;;;6286684;28;20115;-58
2022/07/31 03:01:05;;;;;;;4.60;1.45;;;;;;;;;;6289466;28;20044;-58
2022/07/31 03:04:06;;;;;;;2.35;1.30;;;;;;;;;;6287410;28;20117;-59
2022/07/31 03:07:06;;;;;;;1.95;1.13;;;;;;;;;;6283896;28;20079;-59
2022/07/31 03:10:11;;;;;;;1.85;1.10;;;;;;;;;;6284594;28;20052;-59
2022/07/31 03:13:13;;;;;;;3.03;1.40;;;;;;;;;;6285903;28;20045;-59
2022/07/31 03:16:14;;;;;;;2.33;1.20;;;;;;;;;;6288025;28;20139;-58
2022/07/31 03:19:15;;;;;;;2.27;1.27;;;;;;;;;;6266072;28;20045;-59
2022/07/31 03:22:16;;;;;;;2.42;1.50;;;;;;;;;;6264647;28;20045;-59
2022/07/31 03:25:17;;;;;;;2.28;1.40;;;;;;;;;;6266839;28;20041;-59
2022/07/31 03:28:18;;;;;;;1.87;1.30;;;;;;;;;;6263064;28;20059;-59
2022/07/31 03:31:19;;;;;;;2.65;1.88;;;;;;;;;;6263206;28;20388;-59
2022/07/31 03:34:20;;;;;;;4.53;2.00;;;;;;;;;;6266944;28;20180;-59
2022/07/31 03:37:21;;;;;;;4.13;1.95;;;;;;;;;;6260565;28;20052;-59
2022/07/31 03:40:22;;;;;;;3.58;1.70;;;;;;;;;;6264772;28;20137;-59
2022/07/31 03:43:23;;;;;;;3.25;1.77;;;;;;;;;;6260360;28;20049;-59
2022/07/31 03:46:24;;;;;;;5.05;2.00;;;;;;;;;;6266519;28;20140;-59
2022/07/31 03:49:25;;;;;;;4.15;2.10;;;;;;;;;;6264568;28;20488;-59
2022/07/31 03:52:27;;;;;;;3.50;2.30;;;;;;;;;;6268232;28;20037;-59
2022/07/31 03:55:29;;;;;;;3.38;2.50;;;;;;;;;;6267962;28;20168;-59
2022/07/31 03:58:29;;;;;;;5.38;3.13;;;;;;;;;;6266700;28;20500;-59
2022/07/31 04:01:30;;;;;;;5.25;3.55;;;;;;;;;;6262407;28;20060;-59
2022/07/31 04:04:31;;;;;;;4.97;3.45;;;;;;;;;;6264122;28;20040;-59
2022/07/31 04:07:31;;;;;;;4.18;3.03;;;;;;;;;;6262212;28;20052;-59
2022/07/31 04:10:32;;;;;;;5.20;3.78;;;;;;;;;;6263963;28;20069;-58
2022/07/31 04:13:35;;;;;;;3.97;2.70;;;;;;;;;;6265497;28;20050;-59
2022/07/31 04:16:36;;;;;;;6.72;3.00;;;;;;;;;;6261571;28;20430;-59
2022/07/31 04:19:38;;;;;;;4.65;2.50;;;;;;;;;;6263287;28;20094;-59
2022/07/31 04:22:38;;;;;;;4.70;2.78;;;;;;;;;;6265141;28;20045;-58
2022/07/31 04:25:39;;;;;;;3.80;2.65;;;;;;;;;;6267129;28;20050;-59
2022/07/31 04:28:39;;;;;;;6.03;2.63;;;;;;;;;;6266456;28;20181;-59
2022/07/31 04:31:40;;;;;;;3.25;2.40;;;;;;;;;;6268174;28;20041;-59
2022/07/31 04:34:41;;;;;;;3.55;2.03;;;;;;;;;;6267688;28;20488;-59
2022/07/31 04:37:41;;;;;;;3.30;2.08;;;;;;;;;;6268057;28;20078;-59
2022/07/31 04:40:42;;;;;;;4.45;2.30;;;;;;;;;;6259379;28;20052;-59
2022/07/31 04:43:43;;;;;;;8.02;2.40;;;;;;;;;;6267743;28;20053;-59
2022/07/31 04:46:44;;;;;;;4.32;2.25;;;;;;;;;;6267868;28;20071;-59
2022/07/31 04:49:45;;;;;;;3.13;1.90;;;;;;;;;;6257781;28;20702;-59
2022/07/31 04:52:46;;;;;;;3.00;1.80;;;;;;;;;;6266998;28;20087;-58
2022/07/31 04:56:32;;;;;;;2.78;1.48;;;;;;;;;;6267438;28;20463;-59
2022/07/31 04:59:09;;;;;;;4.35;2.00;;;;;;;;;;6265558;28;20041;-59
2022/07/31 05:02:10;;;;;;;2.40;1.50;;;;;;;;;;6255918;28;20049;-59
2022/07/31 05:05:10;;;;;;;2.83;1.60;;;;;;;;;;6264958;28;20127;-59
2022/07/31 05:08:11;;;;;;;4.50;1.60;;;;;;;;;;6263572;28;20046;-59
2022/07/31 05:11:24;;;;;;;3.45;1.98;;;;;;;;;;6263969;28;20151;-59
2022/07/31 05:14:24;;;;;;;4.97;2.30;;;;;;;;;;6260213;28;20551;-59
2022/07/31 05:17:25;;;;;;;3.50;2.50;;;;;;;;;;6266464;28;20111;-59
2022/07/31 05:20:25;;;;;;;4.10;2.88;;;;;;;;;;6263707;28;20047;-59
2022/07/31 05:23:26;;;;;;;5.22;3.10;;;;;;;;;;6260930;28;20073;-59
2022/07/31 05:26:27;;;;;;;5.68;3.13;;;;;;;;;;6266483;28;20171;-59
2022/07/31 05:29:29;;;;;;;4.95;3.50;;;;;;;;;;6265325;28;20049;-59
2022/07/31 05:32:29;;;;;;;4.43;3.10;;;;;;;;;;6264482;28;20063;-59
2022/07/31 05:35:30;;;;;;;4.68;3.72;;;;;;;;;;6268633;28;20517;-59
2022/07/31 05:38:30;;;;;;;5.03;3.67;;;;;;;;;;6264233;28;20122;-59
2022/07/31 05:41:32;;;;;;;4.80;3.83;;;;;;;;;;6267246;28;20041;-59
2022/07/31 05:44:33;;;;;;;5.38;4.03;;;;;;;;;;6292664;28;20106;-59
2022/07/31 05:47:33;;;;;;;7.00;4.70;;;;;;;;;;6279102;28;20048;-59
2022/07/31 05:50:34;;;;;;;8.60;6.13;;;;;;;;;;6281524;28;20114;-59
2022/07/31 05:53:36;;;;;;;7.65;5.63;;;;;;;;;;6263526;28;20067;-59
2022/07/31 05:56:36;;;;;;;8.45;5.13;;;;;;;;;;6263359;28;20196;-61
2022/07/31 05:59:37;;;;;;;6.88;5.28;;;;;;;;;;6264089;28;20053;-59
2022/07/31 06:02:38;;;;;;;7.55;5.45;;;;;;;;;;6258552;28;20561;-61
2022/07/31 06:05:39;;;;;;;6.57;4.53;;;;;;;;;;6262375;28;20093;-59
2022/07/31 06:08:40;;;;;;;6.88;5.32;;;;;;;;;;6268166;28;20052;-59
2022/07/31 06:11:40;;;;;;;7.88;5.53;;;;;;;;;;6267491;28;20053;-59
2022/07/31 06:14:41;;;;;;;7.85;5.55;;;;;;;;;;6265888;28;20169;-60
2022/07/31 06:17:42;;;;;;;7.38;4.60;;;;;;;;;;6268028;28;20055;-59
2022/07/31 06:20:43;;;;;;;5.32;3.20;;;;;;;;;;6260052;28;20049;-59
2022/07/31 06:23:44;;;;;;;5.32;3.10;;;;;;;;;;6262876;28;20056;-59
2022/07/31 06:26:44;;;;;;;4.65;2.88;;;;;;;;;;6266623;28;20086;-59
2022/07/31 06:29:45;;;;;;;4.15;2.83;;;;;;;;;;6268976;28;20049;-59
2022/07/31 06:32:45;;;;;;;4.80;3.30;;;;;;;;;;6266881;28;20101;-59
2022/07/31 06:35:46;;;;;;;4.70;3.13;;;;;;;;;;6268467;28;20045;-59
2022/07/31 06:38:46;;;;;;;3.83;2.80;;;;;;;;;;6268962;28;20381;-59
2022/07/31 06:41:47;;;;;;;4.18;2.50;;;;;;;;;;6266879;28;20045;-60
2022/07/31 06:44:48;;;;;;;5.72;3.13;;;;;;;;;;6256686;28;20888;-59
2022/07/31 06:47:48;;;;;;;4.43;2.88;;;;;;;;;;6252768;28;20053;-59
2022/07/31 06:50:49;;;;;;;5.70;3.60;;;;;;;;;;6254804;28;20103;-59
2022/07/31 06:53:50;;;;;;;5.20;3.25;;;;;;;;;;6251334;28;20069;-59
2022/07/31 06:56:50;;;;;;;5.75;3.47;;;;;;;;;;6265791;28;20555;-59
2022/07/31 06:59:51;;;;;;;5.30;3.38;;;;;;;;;;6261531;28;20049;-59
2022/07/31 07:02:51;;;;;;;4.75;3.15;;;;;;;;;;6258437;28;20503;-58
2022/07/31 07:05:52;;;;;;;5.28;3.13;;;;;;;;;;6270397;28;20399;-58
2022/07/31 07:08:53;;;;;;;4.63;2.58;;;;;;;;;;6269577;28;20048;-59
2022/07/31 07:11:53;;;;;;;4.55;2.85;;;;;;;;;;6264136;28;20057;-59
2022/07/31 07:14:54;;;;;;;6.47;3.00;;;;;;;;;;6263993;28;20052;-59
2022/07/31 07:17:54;;;;;;;4.95;2.55;;;;;;;;;;6266055;28;20049;-59
2022/07/31 07:20:55;;;;;;;4.90;3.20;;;;;;;;;;6272219;28;20045;-59
2022/07/31 07:23:56;;;;;;;4.28;3.03;;;;;;;;;;6269918;28;20568;-58
2022/07/31 07:26:56;;;;;;;4.72;3.40;;;;;;;;;;6267330;28;20037;-58
2022/07/31 07:29:58;;;;;;;4.72;3.47;;;;;;;;;;6267970;28;20048;-58
2022/07/31 07:32:59;;;;;;;5.40;4.10;;;;;;;;;;6265129;28;20065;-57
2022/07/31 07:35:59;;;;;;;5.32;3.97;;;;;;;;;;6268630;28;20162;-57
2022/07/31 07:39:00;;;;;;;5.22;4.13;;;;;;;;;;6268052;28;20045;-57
2022/07/31 07:42:01;;;;;;;6.68;4.32;;;;;;;;;;6264612;28;20073;-58
2022/07/31 07:45:02;;;;;;;6.25;4.43;;;;;;;;;;6267536;28;20045;-58
2022/07/31 07:48:05;;;;;;;6.00;4.20;;;;;;;;;;6267605;28;20047;-56
2022/07/31 07:51:05;;;;;;;6.65;4.60;;;;;;;;;;6266485;28;20457;-58
2022/07/31 07:54:06;;;;;;;6.45;4.38;;;;;;;;;;6267732;28;20056;-58
2022/07/31 07:57:06;;;;;;;6.55;4.05;;;;;;;;;;6269128;28;20094;-58
2022/07/31 08:00:09;;;;;;;6.35;4.38;;;;;;;;;;6268039;28;20049;-60
2022/07/31 08:03:10;;;;;;;6.75;3.80;;;;;;;;;;6265497;28;20048;-60
2022/07/31 08:06:10;;;;;;;5.65;3.75;;;;;;;;;;6265021;28;20101;-60
2022/07/31 08:09:11;;;;;;;5.53;3.65;;;;;;;;;;6262965;28;20049;-60
2022/07/31 08:12:12;;;;;;;5.10;3.60;;;;;;;;;;6265137;28;20044;-65
2022/07/31 08:15:12;;;;;;;4.53;2.97;;;;;;;;;;6269815;28;20252;-59
2022/07/31 08:18:13;;;;;;;5.03;3.50;;;;;;;;;;6266869;28;20552;-59
2022/07/31 08:21:13;;;;;;;5.28;3.83;;;;;;;;;;6275136;28;20131;-59
2022/07/31 08:24:17;;;;;;;6.80;3.67;;;;;;;;;;6276067;28;20040;-58
2022/07/31 08:27:23;;;;;;;6.35;4.50;;;;;;;;;;6266384;28;20523;-55
2022/07/31 08:30:24;;;;;;;6.65;4.45;;;;;;;;;;6267852;28;20051;-57
2022/07/31 08:33:25;;;;;;;7.57;4.13;;;;;;;;;;6275320;28;20378;-55
2022/07/31 08:36:26;;;;;;;6.65;4.50;;;;;;;;;;6269381;28;20099;-60
2022/07/31 08:39:26;;;;;;;6.22;4.30;;;;;;;;;;6271431;28;20082;-59
2022/07/31 08:42:27;;;;;;;6.55;4.38;;;;;;;;;;6270456;28;20112;-57
2022/07/31 08:45:27;;;;;;;6.45;3.92;;;;;;;;;;6274746;28;20080;-58
2022/07/31 08:48:32;;;;;;;6.78;3.80;;;;;;;;;;6266229;28;20045;-57
2022/07/31 08:51:36;;;;;;;5.90;3.92;;;;;;;;;;6268532;28;20052;-59
2022/07/31 08:54:42;;;;;;;6.00;3.90;;;;;;;;;;6263225;28;20095;-59
2022/07/31 08:57:47;;;;;;;5.05;3.70;;;;;;;;;;6268430;28;20557;-59
2022/07/31 09:00:48;;;;;;;5.25;3.75;;;;;;;;;;6279366;28;20168;-58
2022/07/31 09:03:48;;;;;;;6.32;3.70;;;;;;;;;;6265830;28;20134;-59
2022/07/31 09:06:49;;;;;;;6.63;4.13;;;;;;;;;;6271083;28;20566;-59
2022/07/31 09:09:49;;;;;;;6.18;3.92;;;;;;;;;;6271486;28;20049;-59
2022/07/31 09:12:51;;;;;;;7.70;3.90;;;;;;;;;;6277249;28;20053;-57
2022/07/31 09:15:57;;;;;;;6.35;4.07;;;;;;;;;;6260870;28;20508;-56
2022/07/31 09:19:02;;;;;;;6.15;3.90;;;;;;;;;;6266359;28;20045;-58
2022/07/31 09:22:03;;;;;;;5.68;3.45;;;;;;;;;;6258650;28;20053;-58
2022/07/31 09:25:14;;;;;;;4.38;3.08;;;;;;;;;;6266536;28;20104;-60
2022/07/31 09:28:15;;;;;;;6.57;3.60;;;;;;;;;;6258723;28;20542;-60
2022/07/31 09:31:18;;;;;;;4.97;3.40;;;;;;;;;;6269848;28;20049;-59
2022/07/31 09:34:26;;;;;;;5.38;3.60;;;;;;;;;;6271688;28;20045;-59
2022/07/31 09:37:27;;;;;;;5.22;3.70;;;;;;;;;;6262176;28;20075;-59
2022/07/31 09:40:35;;;;;;;5.33;3.63;;;;;;;;;;6272176;28;20534;-58
2022/07/31 09:43:37;;;;;;;6.18;3.58;;;;;;;;;;6276698;28;20150;-59
2022/07/31 09:46:45;;;;;;;5.07;3.33;;;;;;;;;;6267581;28;20049;-59
2022/07/31 09:49:58;;;;;;;5.43;3.20;;;;;;;;;;6272021;28;20092;-59
2022/07/31 09:52:59;;;;;;;8.05;3.53;;;;;;;;;;6266134;28;20053;-59
2022/07/31 09:56:00;;;;;;;;;;;;;;;;;;6276232;28;20076;-59
2022/07/31 09:59:01;;;;;;;6.03;3.53;;;;;;;;;;6281940;28;19920;-58
2022/07/31 10:02:04;;;;;;;5.43;3.20;;;;;;;;;;6273579;28;20462;-59
2022/07/31 10:05:06;;;;;;;4.95;3.13;;;;;;;;;;6270399;28;20075;-59
2022/07/31 10:08:07;;;;;;;5.88;3.42;;;;;;;;;;6282627;28;20510;-59
2022/07/31 10:11:09;;;;;;;6.20;3.10;;;;;;;;;;6270364;28;20143;-59
2022/07/31 10:14:15;;;;;;;5.38;3.67;;;;;;;;;;6271653;28;20052;-59
2022/07/31 10:17:27;;;;;;;4.65;2.90;;;;;;;;;;6271311;28;20048;-59
2022/07/31 10:20:29;;;;;;;;;;;;;;;;;;6273703;28;20150;-59
2022/07/31 10:23:32;;;;;;;4.72;2.78;;;;;;;;;;6268491;28;19924;-59
2022/07/31 10:26:34;;;;;;;4.85;2.70;;;;;;;;;;6275233;28;20487;-59
2022/07/31 10:29:37;;;;;;;4.18;3.00;;;;;;;;;;6277123;28;20099;-59
2022/07/31 10:32:38;;;;;;;4.78;2.70;;;;;;;;;;6278707;28;20166;-60
2022/07/31 10:36:00;;;;;;;4.65;3.03;;;;;;;;;;6274669;28;20056;-59
2022/07/31 10:39:02;;;;;;;4.97;3.38;;;;;;;;;;6269218;28;20041;-59
2022/07/31 10:42:22;;;;;;;6.18;4.38;;;;;;;;;;6276763;28;20484;-59
2022/07/31 10:45:23;;;;;;;5.70;4.40;;;;;;;;;;6278514;28;20154;-59
2022/07/31 10:48:23;;;;;;;6.65;4.97;;;;;;;;;;6296672;28;20061;-59
2022/07/31 10:51:25;;;;;;;6.95;4.72;;;;;;;;;;6270183;28;20045;-59
2022/07/31 10:54:36;;;;;;;6.55;4.10;;;;;;;;;;6274947;28;20048;-59
2022/07/31 10:57:37;;;;;;;4.93;3.38;;;;;;;;;;6280902;28;20048;-59
2022/07/31 11:00:38;;;;;;;5.55;3.55;;;;;;;;;;6276583;28;20836;-60
2022/07/31 11:03:43;;;;;;;5.90;3.47;;;;;;;;;;6268143;28;20413;-59
2022/07/31 11:06:45;;;;;;;5.20;3.80;;;;;;;;;;6269626;28;20049;-59
2022/07/31 11:09:46;;;;;;;5.53;3.55;;;;;;;;;;6275058;28;20074;-60
2022/07/31 11:13:12;;;;;;;5.10;4.00;;;;;;;;;;6269410;28;20040;-59
2022/07/31 11:16:13;;;;;;;5.40;3.90;;;;;;;;;;6270160;28;20449;-59
2022/07/31 11:19:13;;;;;;;5.63;3.95;;;;;;;;;;6279121;28;20082;-59
2022/07/31 11:22:16;;;;;;;5.40;4.00;;;;;;;;;;6266089;28;20044;-59
2022/07/31 11:25:17;;;;;;;6.80;5.00;;;;;;;;;;6269526;28;20053;-59
2022/07/31 11:28:23;;;;;;;7.68;4.82;;;;;;;;;;6274989;28;20159;-59
2022/07/31 11:31:28;;;;;;;6.70;5.07;;;;;;;;;;6272582;28;20198;-59
2022/07/31 11:34:29;;;;;;;8.60;6.30;;;;;;;;;;6275681;28;20127;-59
2022/07/31 11:37:31;;;;;;;8.20;6.35;;;;;;;;;;6268800;28;20043;-59
2022/07/31 11:40:31;;;;;;;7.97;6.00;;;;;;;;;;6275743;28;20063;-59
2022/07/31 11:43:33;;;;;;;8.05;5.32;;;;;;;;;;6273977;28;20394;-59
2022/07/31 11:46:36;;;;;;;;;;;;;;;;;;6272351;28;20132;-59
2022/07/31 11:49:37;;;;;;;6.80;4.90;;;;;;;;;;6282374;28;19924;-58
2022/07/31 11:52:42;;;;;;;7.10;4.82;;;;;;;;;;6264202;28;20136;-59
2022/07/31 11:55:47;;;;;;;6.97;5.35;;;;;;;;;;6270671;28;20064;-59
2022/07/31 11:58:50;;;;;;;7.25;5.05;;;;;;;;;;6269584;28;20074;-58
2022/07/31 12:01:51;;;;;;;6.65;5.18;;;;;;;;;;6266918;28;20045;-60
2022/07/31 12:04:52;;;;;;;6.38;5.00;;;;;;;;;;6266365;28;20052;-59
2022/07/31 12:07:53;;;;;;;7.55;5.60;;;;;;;;;;6283030;28;20554;-58
2022/07/31 12:10:55;;;;;;;7.88;6.30;;;;;;;;;;6272054;28;20064;-59
2022/07/31 12:13:55;;;;;;;9.73;7.40;;;;;;;;;;6269666;28;20132;-59
2022/07/31 12:16:56;;;;;;;9.63;7.20;;;;;;;;;;6271091;28;20104;-60
2022/07/31 12:20:05;;;;;;;10.80;7.07;;;;;;;;;;6277882;28;20044;-59
2022/07/31 12:23:06;;;;;;;12.02;7.07;;;;;;;;;;6274034;28;20179;-60
2022/07/31 12:26:07;;;;;;;9.43;7.28;;;;;;;;;;6268335;28;20049;-60
2022/07/31 12:29:09;;;;;;;10.37;7.57;;;;;;;;;;6264118;28;20106;-59
2022/07/31 12:32:10;;;;;;;10.32;7.45;;;;;;;;;;6267980;28;20163;-60
2022/07/31 12:35:11;;;;;;;9.98;7.13;;;;;;;;;;6268568;28;20044;-60
2022/07/31 12:38:22;;;;;;;9.77;6.78;;;;;;;;;;6266789;28;20048;-60
2022/07/31 12:41:23;;;;;;;10.68;7.28;;;;;;;;;;6271879;28;20062;-59
2022/07/31 12:44:23;;;;;;;10.65;7.40;;;;;;;;;;6264169;28;20544;-59
2022/07/31 12:47:29;;;;;;;10.00;7.18;;;;;;;;;;6269548;28;20049;-59
2022/07/31 12:50:31;;;;;;;10.43;7.38;;;;;;;;;;6270516;28;20049;-59
2022/07/31 12:53:32;;;;;;;9.73;7.05;;;;;;;;;;6271728;28;20534;-59
2022/07/31 12:56:34;;;;;;;13.60;8.50;;;;;;;;;;6267248;28;20052;-58
2022/07/31 12:59:36;;;;;;;11.10;7.60;;;;;;;;;;6270043;28;20060;-60
2022/07/31 13:02:37;;;;;;;10.35;8.07;;;;;;;;;;6272363;28;20097;-58
2022/07/31 13:05:38;;;;;;;11.82;8.20;;;;;;;;;;6267680;28;20044;-58
2022/07/31 13:08:38;;;;;;;10.55;7.57;;;;;;;;;;6270002;28;20088;-59
2022/07/31 13:11:39;;;;;;;12.55;7.75;;;;;;;;;;6276301;28;20450;-58
2022/07/31 13:14:40;;;;;;;10.40;6.88;;;;;;;;;;6273551;28;20320;-60
2022/07/31 13:17:40;;;;;;;9.85;6.93;;;;;;;;;;6277681;28;20494;-60
2022/07/31 13:20:41;;;;;;;10.50;7.70;;;;;;;;;;6279449;28;20041;-59
2022/07/31 13:23:42;;;;;;;11.02;6.70;;;;;;;;;;6276148;28;20103;-59
2022/07/31 13:26:44;;;;;;;10.30;6.68;;;;;;;;;;6270652;28;20411;-60
2022/07/31 13:29:44;;;;;;;10.88;7.00;;;;;;;;;;6276822;28;20504;-60
2022/07/31 13:32:45;;;;;;;12.48;6.68;;;;;;;;;;6272271;28;20048;-60
2022/07/31 13:35:46;;;;;;;12.03;6.60;;;;;;;;;;6283098;28;20087;-59
2022/07/31 13:38:47;;;;;;;12.18;6.20;;;;;;;;;;6280895;28;20057;-59
2022/07/31 13:41:48;;;;;;;9.38;6.35;;;;;;;;;;6269896;28;20053;-58
2022/07/31 13:44:48;;;;;;;10.05;6.35;;;;;;;;;;6299930;28;20416;-58
2022/07/31 13:47:49;;;;;;;9.20;6.68;;;;;;;;;;6272643;28;20056;-58
2022/07/31 13:50:50;;;;;;;7.90;5.85;;;;;;;;;;6273417;28;20670;-59
2022/07/31 13:53:52;;;;;;;10.18;6.10;;;;;;;;;;6264652;28;20072;-59
2022/07/31 13:56:54;;;;;;;8.50;6.33;;;;;;;;;;6273391;28;20041;-59
2022/07/31 13:59:55;;;;;;;8.02;5.65;;;;;;;;;;6271977;28;20049;-59
2022/07/31 14:02:56;;;;;;;8.15;6.05;;;;;;;;;;6268004;28;20049;-59
2022/07/31 14:05:57;;;;;;;7.95;6.07;;;;;;;;;;6274455;28;20060;-58
2022/07/31 14:08:58;;;;;;;9.65;6.10;;;;;;;;;;6271318;28;20517;-58
2022/07/31 14:11:59;;;;;;;10.82;6.05;;;;;;;;;;6243765;28;20057;-59
2022/07/31 14:15:03;;;;;;;9.37;6.43;;;;;;;;;;6245538;28;20048;-58
2022/07/31 14:18:04;;;;;;;9.35;6.00;;;;;;;;;;6265743;28;20045;-58
2022/07/31 14:21:06;;;;;;;8.75;6.47;;;;;;;;;;6268028;28;20052;-60
2022/07/31 14:24:07;;;;;;;8.10;6.18;;;;;;;;;;6260224;28;20086;-58
2022/07/31 14:27:07;;;;;;;7.93;5.72;;;;;;;;;;6260475;28;20494;-59
2022/07/31 14:30:09;;;;;;;11.15;6.70;;;;;;;;;;6262726;28;20073;-59
2022/07/31 14:33:10;;;;;;;8.70;5.88;;;;;;;;;;6257742;28;20144;-58
2022/07/31 14:36:11;;;;;;;8.10;5.50;;;;;;;;;;6264967;28;20511;-58
2022/07/31 14:39:11;;;;;;;9.13;6.35;;;;;;;;;;6265347;28;20076;-58
2022/07/31 14:42:13;;;;;;;8.15;5.60;;;;;;;;;;6259839;28;20056;-59
2022/07/31 14:45:13;;;;;;;8.13;5.95;;;;;;;;;;6260273;28;20456;-59
2022/07/31 14:48:14;;;;;;;10.25;6.55;;;;;;;;;;6265111;28;20069;-61
2022/07/31 14:51:18;;;;;;;8.77;5.60;;;;;;;;;;6261167;28;20057;-60
2022/07/31 14:54:19;;;;;;;9.50;5.85;;;;;;;;;;6261741;28;20053;-59
2022/07/31 14:57:20;;;;;;;7.80;6.00;;;;;;;;;;6260132;28;20585;-58
2022/07/31 15:00:20;;;;;;;9.90;5.95;;;;;;;;;;6264965;28;20052;-58
2022/07/31 15:03:21;;;;;;;10.73;5.80;;;;;;;;;;6259422;28;20901;-59
2022/07/31 15:06:22;;;;;;;11.73;5.77;;;;;;;;;;6263805;28;20118;-60
2022/07/31 15:09:22;;;;;;;10.77;5.85;;;;;;;;;;6269022;28;20057;-58
2022/07/31 15:12:23;;;;;;;10.95;6.30;;;;;;;;;;6261400;28;20067;-59
2022/07/31 15:15:23;;;;;;;7.93;5.97;;;;;;;;;;6263614;28;20052;-60
2022/07/31 15:18:24;;;;;;;8.95;6.35;;;;;;;;;;6268321;28;20102;-60
2022/07/31 15:21:25;;;;;;;11.40;6.80;;;;;;;;;;6263852;28;20569;-57
2022/07/31 15:24:26;;;;;;;7.95;6.25;;;;;;;;;;6259544;28;20099;-60
2022/07/31 15:27:26;;;;;;;7.57;6.53;;;;;;;;;;6263524;28;20457;-58
2022/07/31 15:30:28;;;;;;;10.23;7.40;;;;;;;;;;6263153;28;20049;-59
2022/07/31 15:33:29;;;;;;;11.93;6.97;;;;;;;;;;6259352;28;20051;-60
2022/07/31 15:36:30;;;;;;;10.40;6.95;;;;;;;;;;6258741;28;20084;-59
2022/07/31 15:39:30;;;;;;;9.65;6.85;;;;;;;;;;6262062;28;20510;-59
2022/07/31 15:42:36;;;;;;;10.85;7.15;;;;;;;;;;6259095;28;20049;-59
2022/07/31 15:45:37;;;;;;;8.80;6.70;;;;;;;;;;6260166;28;20088;-59
2022/07/31 15:48:38;;;;;;;18.50;7.95;;;;;;;;;;6258873;28;20593;-58
2022/07/31 15:51:38;;;;;;;11.15;7.68;;;;;;;;;;6260925;28;20441;-59
2022/07/31 15:54:39;;;;;;;10.80;7.82;;;;;;;;;;6260069;28;20045;-59
2022/07/31 15:57:40;;;;;;;11.68;7.32;;;;;;;;;;6264856;28;20053;-59
2022/07/31 16:00:40;;;;;;;8.63;6.63;;;;;;;;;;6260931;28;20052;-59
2022/07/31 16:03:41;;;;;;;10.05;6.72;;;;;;;;;;6254850;28;20064;-59
2022/07/31 16:06:42;;;;;;;8.45;5.88;;;;;;;;;;6266416;28;20075;-58
2022/07/31 16:09:43;;;;;;;9.02;6.07;;;;;;;;;;6261286;28;20312;-59
2022/07/31 16:12:45;;;;;;;8.07;5.23;;;;;;;;;;6257788;28;20493;-58
2022/07/31 16:15:45;;;;;;;8.93;5.77;;;;;;;;;;6263549;28;20650;-57
2022/07/31 16:18:46;;;;;;;8.55;5.75;;;;;;;;;;6265196;28;20159;-58
2022/07/31 16:21:46;;;;;;;9.30;5.93;;;;;;;;;;6265881;28;20457;-59
2022/07/31 16:24:47;;;;;;;8.82;5.50;;;;;;;;;;6261283;28;20480;-58
2022/07/31 16:27:48;;;;;;;10.43;5.65;;;;;;;;;;6267636;28;20550;-59
2022/07/31 16:30:49;;;;;;;7.13;5.20;;;;;;;;;;6258828;28;20167;-59
2022/07/31 16:33:49;;;;;;;7.15;5.53;;;;;;;;;;6263038;28;20052;-58
2022/07/31 16:36:50;;;;;;;8.73;6.10;;;;;;;;;;6262708;28;20057;-58
2022/07/31 16:39:52;;;;;;;7.75;6.60;;;;;;;;;;6264276;28;20609;-58
2022/07/31 16:42:53;;;;;;;11.68;7.75;;;;;;;;;;6258830;28;20064;-60
2022/07/31 16:45:55;;;;;;;10.82;7.82;;;;;;;;;;6262174;28;20048;-59
2022/07/31 16:48:56;;;;;;;12.10;8.52;;;;;;;;;;6263313;28;20397;-59
2022/07/31 16:51:57;;;;;;;13.73;8.32;;;;;;;;;;6260040;28;20053;-59
2022/07/31 16:54:58;;;;;;;13.95;7.93;;;;;;;;;;6259552;28;20056;-59
2022/07/31 16:57:59;;;;;;;16.60;8.05;;;;;;;;;;6264248;28;20048;-59
2022/07/31 17:01:02;;;;;;;11.77;7.68;;;;;;;;;;6257579;28;20056;-59
2022/07/31 17:04:03;;;;;;;12.48;6.80;;;;;;;;;;6260788;28;20053;-59
2022/07/31 17:07:04;;;;;;;11.10;6.28;;;;;;;;;;6263507;28;20138;-60
2022/07/31 17:10:05;;;;;;;7.77;5.90;;;;;;;;;;6264423;28;20053;-59
2022/07/31 17:13:06;;;;;;;8.65;5.97;;;;;;;;;;6255535;28;20071;-59
2022/07/31 17:16:06;;;;;;;9.10;5.53;;;;;;;;;;6261681;28;21173;-59
2022/07/31 17:19:07;;;;;;;9.10;6.25;;;;;;;;;;6266112;28;20052;-59
2022/07/31 17:22:09;;;;;;;10.98;6.00;;;;;;;;;;6261092;28;20075;-59
2022/07/31 17:25:10;;;;;;;7.93;5.35;;;;;;;;;;6259158;28;20056;-60
2022/07/31 17:28:10;;;;;;;8.07;5.77;;;;;;;;;;6266746;28;20479;-59
2022/07/31 17:31:11;;;;;;;8.75;5.57;;;;;;;;;;6261712;28;20769;-60
2022/07/31 17:34:12;;;;;;;10.18;5.95;;;;;;;;;;6258987;28;20459;-57
2022/07/31 17:37:12;;;;;;;12.17;6.30;;;;;;;;;;6261919;28;20053;-58
2022/07/31 17:40:13;;;;;;;9.13;5.88;;;;;;;;;;6263019;28;20771;-57
2022/07/31 17:43:14;;;;;;;9.10;6.20;;;;;;;;;;6260045;28;20048;-57
2022/07/31 17:46:14;;;;;;;12.00;6.20;;;;;;;;;;6262345;28;20052;-58
2022/07/31 17:49:16;;;;;;;9.60;6.17;;;;;;;;;;6261264;28;20045;-58
2022/07/31 17:52:19;;;;;;;9.43;6.23;;;;;;;;;;6258999;28;20057;-58
2022/07/31 17:55:20;;;;;;;11.75;6.60;;;;;;;;;;6264388;28;20317;-58
2022/07/31 17:58:21;;;;;;;8.75;5.80;;;;;;;;;;6258696;28;20572;-57
2022/07/31 18:01:21;;;;;;;11.83;7.10;;;;;;;;;;6258834;28;20514;-61
2022/07/31 18:04:22;;;;;;;13.17;6.63;;;;;;;;;;6261959;28;20067;-60
2022/07/31 18:07:24;;;;;;;10.73;6.97;;;;;;;;;;6260216;28;20057;-60